Flight Track Log - Related Links

Times and Time Zones

All times are in EDT time to prevent confusion due to time zone crossing. See the SWA1233 flight status page for this flight to view local times or setup timezone preferences in your user account.

Time Position Orientation Groundspeed Altitude Reporting Facility
EDT Latitude Longitude Course Direction KTS MPH feet Rate Location/Type
Sat 08:32:27 PM 28.4167 -81.3000 156° South 159 183 600  Level Orlando TRACON
Sat 08:33:09 PM 28.3833 -81.2833 156° South 167 192 1,900 2,235 Climbing Orlando TRACON
Sat 08:34:09 PM 28.3500 -81.2167 120° Southeast 256 295 4,400 2,700 Climbing Orlando TRACON
Sat 08:35:09 PM 28.3833 -81.1667 53° Northeast 276 318 7,300 3,050 Climbing Orlando TRACON
Sat 08:36:09 PM 28.4500 -81.1833 348° North 300 345 10,500 2,500 Climbing Orlando TRACON
Sat 08:37:09 PM 28.5500 -81.2167 344° North 375 432 12,300 2,287 Climbing Orlando TRACON
Sat 08:39:10 PM 28.7450 -81.2847 343° North 415 478 17,400 2,652 Climbing Jacksonville Center
Sat 08:40:10 PM 28.8539 -81.3161 346° North 404 465 20,300 2,550 Climbing Jacksonville Center
Sat 08:41:10 PM 28.9686 -81.3144 North 404 465 22,500 2,150 Climbing Jacksonville Center
Sat 08:42:10 PM 29.0892 -81.2744 16° North 409 471 24,600 1,950 Climbing Jacksonville Center
Sat 08:43:10 PM 29.2097 -81.2297 18° North 430 495 26,400 1,800 Climbing Jacksonville Center
Sat 08:44:10 PM 29.3325 -81.1894 16° North 448 516 28,200 1,600 Climbing Jacksonville Center
Sat 08:45:10 PM 29.4611 -81.1419 18° North 464 534 29,600 1,600 Climbing Jacksonville Center
Sat 08:46:10 PM 29.5839 -81.1014 16° North 464 534 31,400 1,750 Climbing Jacksonville Center
Sat 08:47:10 PM 29.7106 -81.0586 16° North 464 534 33,100 1,650 Climbing Jacksonville Center
Sat 08:48:10 PM 29.8414 -81.0131 17° North 469 540 34,700 1,800 Climbing Jacksonville Center
Sat 08:49:10 PM 29.9681 -80.9697 17° North 474 545 36,700 1,750 Climbing Jacksonville Center
Sat 08:50:10 PM 30.0886 -80.9242 18° North 468 539 38,200 1,150 Climbing Jacksonville Center
Sat 08:51:10 PM 30.2111 -80.8831 16° North 456 525 39,000 400 Climbing Jacksonville Center
Sat 08:52:10 PM 30.3336 -80.8397 17° North 456 525 39,000  Level Jacksonville Center
Sat 08:53:10 PM 30.4539 -80.7961 17° North 456 525 39,000  Level Jacksonville Center
Sat 08:54:10 PM 30.5764 -80.7547 16° North 456 525 39,000  Level Jacksonville Center
Sat 08:55:10 PM 30.7008 -80.7133 16° North 456 525 39,000  Level Jacksonville Center
Sat 08:56:10 PM 30.8233 -80.6719 16° North 450 518 39,000  Level Jacksonville Center
Sat 08:57:10 PM 30.9436 -80.6278 17° North 450 518 39,000  Level Jacksonville Center
Sat 08:58:10 PM 31.0661 -80.5861 16° North 450 518 39,000  Level Jacksonville Center
Sat 08:59:10 PM 31.1886 -80.5419 17° North 456 525 39,000  Level Jacksonville Center
Sat 09:00:10 PM 31.3131 -80.4950 18° North 456 525 39,000  Level Jacksonville Center
Sat 09:01:10 PM 31.4375 -80.4528 16° North 461 531 39,000  Level Jacksonville Center
Sat 09:02:10 PM 31.5639 -80.4081 17° North 461 531 39,000  Level Jacksonville Center
Sat 09:03:10 PM 31.6883 -80.3608 18° North 461 531 39,000  Level Jacksonville Center
Sat 09:04:10 PM 31.8167 -80.3181 16° North 466 536 39,000  Level Jacksonville Center
Sat 09:05:10 PM 31.9433 -80.2731 17° North 466 536 39,000  Level Jacksonville Center
Sat 09:06:10 PM 32.0675 -80.2253 18° North 466 536 39,000  Level Jacksonville Center
Sat 09:07:10 PM 32.1939 -80.1800 17° North 471 542 39,000  Level Jacksonville Center
Sat 09:08:10 PM 32.3181 -80.1369 16° North 471 542 39,000  Level Jacksonville Center
Sat 09:09:10 PM 32.4444 -80.0886 18° North 471 542 39,000  Level Jacksonville Center
Sat 09:10:10 PM 32.5667 -80.0431 17° North 471 542 39,000  Level Jacksonville Center
Sat 09:11:10 PM 32.6928 -79.9972 17° North 466 536 39,000  Level Jacksonville Center
Sat 09:12:10 PM 32.8169 -79.9511 17° North 466 536 39,000  Level Jacksonville Center
Sat 09:13:10 PM 32.9392 -79.9025 18° North 461 531 39,000  Level Jacksonville Center
Sat 09:14:10 PM 33.0653 -79.8564 17° North 456 525 39,000  Level Jacksonville Center
Sat 09:15:10 PM 33.1850 -79.7975 22° Northeast 456 525 39,000  Level Jacksonville Center
Sat 09:16:10 PM 33.3122 -79.7161 28° Northeast 462 532 39,000  Level Jacksonville Center
Sat 09:17:10 PM 33.4294 -79.6472 26° Northeast 462 532 39,000  Level Jacksonville Center
Sat 09:18:10 PM 33.5444 -79.5758 27° Northeast 462 532 39,000  Level Jacksonville Center
Sat 09:19:10 PM 33.6617 -79.5039 27° Northeast 462 532 39,000  Level Jacksonville Center
Sat 09:20:10 PM 33.7558 -79.4453 27° Northeast 462 532 39,000  Level Jacksonville Center
Sat 09:21:10 PM 33.8811 -79.3681 27° Northeast 462 532 39,000  Level Jacksonville Center
Sat 09:23:11 PM 34.0853 -79.1600 40° Northeast 476 548 39,000  Level Washington Center
Sat 09:24:11 PM 34.1864 -79.0539 41° Northeast 476 548 39,000  Level Washington Center
Sat 09:25:11 PM 34.2956 -78.9553 37° Northeast 482 555 39,000  Level Washington Center
Sat 09:26:12 PM 34.3983 -78.8589 38° Northeast 477 549 39,000  Level Washington Center
Sat 09:27:13 PM 34.5192 -78.7881 26° Northeast 477 549 39,000  Level Washington Center
Sat 09:28:12 PM 34.6531 -78.7050 27° Northeast 477 549 39,000  Level Washington Center
Sat 09:29:13 PM 34.7611 -78.6408 26° Northeast 477 549 39,000  Level Washington Center
Sat 09:30:12 PM 34.8794 -78.5744 25° Northeast 466 536 39,000  Level Washington Center
Sat 09:31:11 PM 35.0003 -78.5053 25° Northeast 466 536 39,000  Level Washington Center
Sat 09:32:11 PM 35.1186 -78.4361 26° Northeast 466 536 39,000  Level Washington Center
Sat 09:33:12 PM 35.2372 -78.3614 27° Northeast 471 542 39,000  Level Washington Center
Sat 09:34:11 PM 35.3619 -78.2917 25° Northeast 471 542 39,000  Level Washington Center
Sat 09:35:11 PM 35.4867 -78.2194 25° Northeast 476 548 39,000  Level Washington Center
Sat 09:36:11 PM 35.6114 -78.1494 25° Northeast 476 548 39,000  Level Washington Center
Sat 09:37:13 PM 35.7358 -78.0792 25° Northeast 482 555 39,000  Level Washington Center
Sat 09:38:11 PM 35.8583 -78.0036 27° Northeast 482 555 39,000  Level Washington Center
Sat 09:39:12 PM 35.9808 -77.9331 25° Northeast 482 555 39,000  Level Washington Center
Sat 09:40:13 PM 36.1011 -77.8619 26° Northeast 487 560 39,000  Level Washington Center
Sat 09:41:11 PM 36.2278 -77.7883 25° Northeast 482 555 39,000  Level Washington Center
Sat 09:42:11 PM 36.3458 -77.7169 26° Northeast 482 555 39,000  Level Washington Center
Sat 09:43:12 PM 36.4744 -77.6378 26° Northeast 467 537 39,000  Level Washington Center
Sat 09:44:11 PM 36.5989 -77.5633 26° Northeast 467 537 39,000  Level Washington Center
Sat 09:45:13 PM 36.7189 -77.4886 27° Northeast 473 544 39,000  Level Washington Center
Sat 09:46:13 PM 36.8392 -77.4164 26° Northeast 473 544 39,000  Level Washington Center
Sat 09:47:12 PM 36.9611 -77.3411 26° Northeast 473 544 39,000  Level Washington Center
Sat 09:48:12 PM 37.0853 -77.2658 26° Northeast 473 544 39,000  Level Washington Center
Sat 09:49:13 PM 37.2053 -77.1931 26° Northeast 473 544 39,000  Level Washington Center
Sat 09:50:13 PM 37.3167 -77.1222 27° Northeast 481 554 39,000  Level Washington Center
Sat 09:51:13 PM 37.4472 -77.0253 31° Northeast 492 566 39,000  Level Washington Center
Sat 09:52:11 PM 37.5628 -76.9464 28° Northeast 497 572 39,000  Level Washington Center
Sat 09:53:11 PM 37.6786 -76.8564 32° Northeast 492 566 39,000  Level Washington Center
Sat 09:54:12 PM 37.7961 -76.7692 30° Northeast 492 566 39,000  Level Washington Center
Sat 09:55:13 PM 37.9158 -76.6814 30° Northeast 492 566 39,000  Level Washington Center
Sat 09:56:12 PM 38.0314 -76.5908 32° Northeast 492 566 39,000  Level Washington Center
Sat 09:57:12 PM 38.1508 -76.5028 30° Northeast 492 566 39,000  Level Washington Center
Sat 09:58:11 PM 38.2683 -76.4142 31° Northeast 492 566 39,000  Level Washington Center
Sat 09:59:13 PM 38.3794 -76.3147 35° Northeast 487 560 39,000  Level Washington Center
Sat 10:00:11 PM 38.4886 -76.2150 36° Northeast 487 560 39,000  Level Washington Center
Sat 10:01:11 PM 38.6017 -76.1122 35° Northeast 493 567 39,000  Level Washington Center
Sat 10:02:12 PM 38.7103 -76.0119 36° Northeast 493 567 39,000  Level Washington Center
Sat 10:03:13 PM 38.8192 -75.9061 37° Northeast 493 567 39,000  Level Washington Center
Sat 10:04:11 PM 38.9297 -75.8050 35° Northeast 488 562 39,000  Level Washington Center
Sat 10:05:12 PM 39.0383 -75.7011 37° Northeast 483 556 39,000  Level Washington Center
Sat 10:06:12 PM 39.1508 -75.5942 36° Northeast 483 556 39,000  Level Washington Center
Sat 10:07:12 PM 39.2614 -75.4925 35° Northeast 483 556 39,000  Level Washington Center
Sat 10:08:12 PM 39.3736 -75.3903 35° Northeast 488 562 39,000  Level Washington Center
Sat 10:09:13 PM 39.4881 -75.2878 35° Northeast 498 573 39,000  Level Washington Center
Sat 10:10:13 PM 39.6003 -75.1850 35° Northeast 498 573 39,000  Level Washington Center
Sat 10:11:55 PM 39.8106 -74.9975 34° Northeast 502 578 39,000  Level New York Center
Sat 10:12:56 PM 39.9225 -74.8958 35° Northeast 502 578 39,000  Level New York Center
Sat 10:13:54 PM 40.0167 -74.7661 47° Northeast 490 564 39,000  Level New York Center
Sat 10:14:55 PM 40.1019 -74.6486 46° Northeast 496 571 39,000  Level New York Center
Sat 10:15:54 PM 40.2417 -74.5858 19° North 475 547 39,000  Level New York Center
Sat 10:16:56 PM 40.3681 -74.5439 14° North 487 560 39,000  Level New York Center
Sat 10:17:54 PM 40.4983 -74.5044 13° North 487 560 39,000  Level New York Center
Sat 10:18:55 PM 40.6436 -74.4578 14° North 487 560 39,000  Level New York Center
Sat 10:19:54 PM 40.7633 -74.4233 12° North 482 555 39,000  Level New York Center
Sat 10:20:55 PM 40.8958 -74.3836 13° North 482 555 39,000  Level New York Center
Sat 10:21:55 PM 41.0283 -74.3439 13° North 482 555 39,000  Level New York Center
Sat 10:24:00 PM 41.3019 -74.2611 13° North 474 545 39,000  Level Boston Center
Sat 10:25:00 PM 41.4339 -74.2206 13° North 474 545 39,000  Level Boston Center
Sat 10:25:58 PM 41.5700 -74.1825 12° North 486 559 39,000 -400 Level Boston Center
Sat 10:27:00 PM 41.7061 -74.1392 13° North 491 565 38,200 -1,869 Descending Boston Center
Sat 10:28:00 PM 41.8486 -74.0956 13° North 486 559 35,200 -2,695 Descending Boston Center
Sat 10:28:58 PM 41.9847 -74.0461 15° North 491 565 32,900 -1,613 Descending Boston Center
Sat 10:29:59 PM 42.0764 -73.9000 50° Northeast 493 567 32,000 -885 Descending Boston Center
Sat 10:31:00 PM 42.1514 -73.7339 59° Northeast 494 568 31,100 -950 Descending Boston Center
Sat 10:31:59 PM 42.2303 -73.5617 58° Northeast 524 603 30,100 -966 Descending Boston Center
Sat 10:32:58 PM 42.3047 -73.3944 59° Northeast 517 595 29,200 -958 Descending Boston Center
Sat 10:33:58 PM 42.3767 -73.2325 59° Northeast 508 585 28,200 -1,300 Descending Boston Center
Sat 10:34:58 PM 42.4486 -73.0731 59° Northeast 501 577 26,600 -2,182 Descending Boston Center
Sat 10:35:59 PM 42.5161 -72.9106 61° Northeast 501 577 23,800 -2,634 Descending Boston Center
Sat 10:37:01 PM 42.5647 -72.7503 68° East 476 548 21,200 -2,471 Descending Boston Center
Sat 10:37:58 PM 42.6086 -72.6122 67° East 450 518 18,900 -2,410 Descending Boston Center
Sat 10:38:58 PM 42.6547 -72.4656 67° East 432 497 16,500 -2,430 Descending Boston Center
Sat 10:39:59 PM 42.7006 -72.3186 67° East 425 489 14,000 -2,550 Descending Boston Center
Sat 10:40:58 PM 42.7461 -72.1686 67° East 398 458 11,400 -1,850 Descending Boston Center
Sat 10:41:59 PM 42.7833 -72.0497 67° East 378 435 10,300 -1,230 Descending Boston Center
Sat 10:43:00 PM 42.8203 -71.9222 68° East 343 395 8,900 -1,350 Descending Boston Center
Sat 10:43:59 PM 42.8300 -71.8200 83° East 310 357 7,600 -1,400 Descending Boston Center
Sat 10:45:00 PM 42.8839 -71.7261 52° Northeast 277 319 6,100 -1,388 Descending Boston Center
Sat 10:46:00 PM 42.9375 -71.6544 44° Northeast 283 326 4,800 -1,220 Descending Boston Center
Sat 10:46:58 PM 42.9911 -71.5744 47° Northeast 268 308 3,700 -1,210 Descending Boston Center
Sat 10:47:59 PM 43.0303 -71.5086 51° Northeast 252 290 2,400 -1,131 Descending Boston Center
Sat 10:49:00 PM 42.9944 -71.4722 143° Southeast 123 142 1,400 -807 Descending Boston Center
Sat 10:49:58 PM 42.9650 -71.4528 154° Southeast 117 135 800 -504 Descending Boston Center
Sat 10:51:11 PM 42.9253 -71.4250 153° Southeast 130 150 300 3,672 Descending Boston Center
Sat 10:52:12 PM 42.8939 -71.4058 156° South 130 150 9,000 4,314 Climbing Boston Center
Sat 10:53:12 PM 42.8622 -71.3836 153° Southeast 130 150 9,000  Level Boston Center
Sat 10:54:10 PM 42.8308 -71.3642 156° South 130 150 9,000  Level Boston Center
Sat 10:55:10 PM 42.8183 -71.3561 155° Southeast 130 150 9,000  Level Boston Center
Sat 10:57:00 PM 42.9167 -71.4333 316° Northwest  Level FlightAware Approximate
Sat 11:04:00 PM 42.9328 -71.4358 316° Northwest  Level Estimated
Sat 11:05:00 PM 42.9328 -71.4358 316° Northwest  Level Estimated
Sat 11:06:00 PM 42.9328 -71.4358 316° Northwest  Level Estimated

Login

Don't have an account? Register now (free) for customized features, flight alerts, and more!